ADDS METAR Data INFO
IDs: Format: Raw Decoded Include TAF

Data at: 2330 UTC 19 Oct 2017

KCWC 192315Z AUTO 13010G17KT 10SM CLR 25/09 A3006 RMK AO2 T02500093
KCWC 192255Z AUTO 13011G16KT 10SM CLR 25/10 A3006 RMK AO2 T02510100
KCWC 192235Z AUTO 13012KT 10SM CLR 26/10 A3006 RMK AO2 T02560099
KCWC 192215Z AUTO 12012G17KT 10SM CLR 26/11 A3006 RMK AO2 T02630105
KCWC 192155Z AUTO 13012G17KT 10SM CLR 26/10 A3006 RMK AO2 T02640096
KCWC 192135Z AUTO 14014G20KT 10SM CLR 27/09 A3005 RMK AO2 T02700090
KCWC 192115Z AUTO 13013G18KT 10SM CLR 27/10 A3006 RMK AO2 T02720096
KCWC 192055Z AUTO 15012G19KT 10SM CLR 28/08 A3006 RMK AO2 T02770083
KCWC 192035Z AUTO 12012G17KT 10SM CLR 27/10 A3006 RMK AO2 T02740096
KCWC 192015Z AUTO 16012G19KT 10SM CLR 27/10 A3007 RMK AO2 T02680097
KCWC 191955Z AUTO 16010G19KT 10SM CLR 27/10 A3008 RMK AO2 T02720097
KCWC 191935Z AUTO 16009G14KT 120V180 10SM CLR 27/10 A3009 RMK AO2 T02710098
KCWC 191915Z AUTO 14015G19KT 10SM CLR 27/11 A3010 RMK AO2 T02690106
KCWC 191855Z AUTO 17009G18KT 10SM CLR 27/10 A3011 RMK AO2 T02680102
KCWC 191835Z AUTO 18010G16KT 7SM CLR 26/11 A3012 RMK AO2 T02630108
KCWC 191815Z AUTO 16013KT 10SM CLR 26/12 A3013 RMK AO2 T02600121
KCWC 191755Z AUTO 19008G14KT 10SM CLR 25/12 A3015 RMK AO2 T02510120 10251 20120
KCWC 191735Z AUTO 17010G14KT 140V210 10SM CLR 25/12 A3015 RMK AO2 T02470117
KCWC 191715Z AUTO 19010G17KT 140V200 10SM CLR 24/12 A3016 RMK AO2 T02430120
KCWC 191655Z AUTO 20008G20KT 10SM CLR 23/12 A3017 RMK AO2 T02300117
KCWC 191635Z AUTO 19011G19KT 10SM CLR 22/12 A3017 RMK AO2 T02220116
KCWC 191615Z AUTO 19010G20KT 10SM CLR 22/12 A3017 RMK AO2 T02150115
KCWC 191555Z AUTO 16010G17KT 140V210 7SM CLR 20/11 A3018 RMK AO2 T02010110
KCWC 191535Z AUTO 16009KT 7SM CLR 19/11 A3018 RMK AO2 T01860105
KCWC 191515Z AUTO 16008KT 7SM CLR 18/10 A3018 RMK AO2 T01750103
KCWC 191455Z AUTO 16008KT 1SM HZ VV007 17/10 A3018 RMK AO2 VIS M1/4V5 T01660102
KCWC 191435Z AUTO 15007KT 10SM CLR 15/10 A3018 RMK AO2 T01530099
KCWC 191415Z AUTO 13012KT 7SM CLR 15/10 A3016 RMK AO2 T01480095
KCWC 191355Z AUTO 13010KT 2 1/2SM HZ CLR 14/09 A3016 RMK AO2 T01390094
KCWC 191335Z AUTO 12010KT 4SM HZ CLR 13/09 A3015 RMK AO2 T01300090
KCWC 191315Z AUTO 12008KT 10SM CLR 12/09 A3014 RMK AO2 T01200085
KCWC 191255Z AUTO 11008KT 10SM CLR 12/08 A3014 RMK AO2 T01210080
KCWC 191235Z AUTO 12007KT 10SM CLR 12/08 A3013 RMK AO2 T01210077
KCWC 191215Z AUTO 08004KT 10SM CLR 12/08 A3013 RMK AO2 T01200077
KCWC 191155Z AUTO 11007KT 10SM CLR 12/08 A3013 RMK AO2 T01240077 10163 20123
KCWC 191135Z AUTO 10007KT 10SM CLR 12/08 A3013 RMK AO2 T01230080
KCWC 191115Z AUTO 09004KT 10SM CLR 13/08 A3012 RMK AO2 T01310082
KCWC 191055Z AUTO 12007KT 10SM CLR 13/08 A3011 RMK AO2 T01300084
KCWC 191035Z AUTO 11010KT 10SM CLR 13/09 A3011 RMK AO2 T01320087
KCWC 191015Z AUTO 11010KT 10SM CLR 14/08 A3011 RMK AO2 T01350084
KCWC 190955Z AUTO 11007KT 10SM CLR 14/08 A3010 RMK AO2 T01350082
KCWC 190935Z AUTO 10007KT 10SM CLR 14/09 A3010 RMK AO2 T01360085
KCWC 190915Z AUTO 12010KT 10SM CLR 13/08 A3010 RMK AO2 T01320082
KCWC 190855Z AUTO 15007KT 10SM CLR 13/08 A3010 RMK AO2 T01260082
KCWC 190835Z AUTO 14004KT 10SM CLR 13/08 A3010 RMK AO2 T01310080
KCWC 190815Z AUTO 14005KT 10SM CLR 14/08 A3010 RMK AO2 T01350080
KCWC 190755Z AUTO 14005KT 10SM CLR 14/08 A3010 RMK AO2 T01440079
KCWC 190735Z AUTO 15004KT 10SM CLR 15/08 A3009 RMK AO2 T01520076
KCWC 190715Z AUTO 16006KT 10SM CLR 16/08 A3009 RMK AO2 T01550075
KCWC 190655Z AUTO 15006KT 10SM CLR 16/07 A3009 RMK AO2 T01600074
KCWC 190635Z AUTO 15005KT 10SM CLR 16/07 A3009 RMK AO2 T01610074
KCWC 190615Z AUTO 15006KT 10SM CLR 16/07 A3009 RMK AO2 T01620073
KCWC 190555Z AUTO 16006KT 10SM CLR 16/07 A3009 RMK AO2 T01630072 10236 20160 402830090
KCWC 190535Z AUTO 15006KT 10SM CLR 16/08 A3009 RMK AO2 T01630075
KCWC 190515Z AUTO 15007KT 10SM CLR 17/07 A3009 RMK AO2 T01700074
KCWC 190455Z AUTO 15007KT 10SM CLR 18/08 A3009 RMK AO2 T01750075
KCWC 190435Z AUTO 15008KT 10SM CLR 17/08 A3009 RMK AO2 T01740077
KCWC 190420Z AUTO 14007KT 10SM CLR 17/08 A3009 RMK AO2 T01660080
KCWC 190355Z AUTO 15007KT 10SM CLR 16/08 A3008 RMK AO2 T01610083
KCWC 190335Z AUTO 15006KT 10SM CLR 16/08 A3008 RMK AO2 T01610083
KCWC 190315Z AUTO 13005KT 10SM CLR 16/08 A3008 RMK AO2 T01630084
KCWC 190300Z AUTO 13006KT 10SM CLR 17/08 A3008 RMK AO2 T01700084
KCWC 190235Z AUTO 16009G14KT 10SM CLR 18/08 A3008 RMK AO2 T01840082
KCWC 190215Z AUTO 12008G14KT 10SM CLR 20/08 A3008 RMK AO2 T01960080
KCWC 190200Z AUTO 13007KT 10SM CLR 20/09 A3007 RMK AO2 T01960085
KCWC 190135Z AUTO 12008KT 10SM CLR 21/09 A3007 RMK AO2 T02070086
KCWC 190115Z AUTO 11007KT 10SM CLR 21/08 A3006 RMK AO2 T02140084
KCWC 190055Z AUTO 11007KT 10SM CLR 22/08 A3006 RMK AO2 T02170083
KCWC 190035Z AUTO 11006KT 10SM CLR 22/09 A3005 RMK AO2 T02210085
KCWC 190015Z AUTO 12011KT 10SM CLR 23/08 A3005 RMK AO2 T02260082
KCWC 182355Z AUTO 13009KT 10SM CLR 24/08 A3004 RMK AO2 T02380082 10283 20238
KCWC 182335Z AUTO 13008G14KT 10SM CLR 26/08 A3004 RMK AO2 T02570077
KCWC 182315Z AUTO 15007KT 10SM CLR 27/07 A3003 RMK AO2 T02680071
KCWC 182255Z AUTO 14010G16KT 10SM CLR 28/07 A3003 RMK AO2 T02750067
KCWC 182235Z AUTO 15011G18KT 10SM CLR 28/07 A3003 RMK AO2 T02810068
KCWC 182215Z AUTO 16010G17KT 10SM CLR 28/06 A3003 RMK AO2 T02770062
KCWC 182155Z AUTO 16011G19KT 10SM CLR 28/07 A3003 RMK AO2 T02830067
KCWC 182135Z AUTO 17011G15KT 10SM CLR 28/07 A3003 RMK AO2 T02800071
KCWC 182115Z AUTO 17014G17KT 10SM CLR 28/07 A3003 RMK AO2 T02820068
KCWC 182055Z AUTO 17014G18KT 10SM CLR 28/08 A3004 RMK AO2 T02790075
KCWC 182035Z AUTO 17013KT 5SM HZ CLR 27/08 A3004 RMK AO2 T02740077
KCWC 182015Z AUTO 18012G17KT 10SM CLR 28/07 A3005 RMK AO2 T02750072
KCWC 181955Z AUTO 17013KT 7SM CLR 27/07 A3005 RMK AO2 T02680072
KCWC 181935Z AUTO 17015KT 10SM CLR 27/06 A3007 RMK AO2 T02660063
KCWC 181915Z AUTO 18012G15KT 10SM CLR 26/06 A3008 RMK AO2 T02620060
KCWC 181855Z AUTO 18014KT 10SM CLR 26/07 A3009 RMK AO2 T02610071
KCWC 181835Z AUTO 18010G14KT 10SM CLR 26/06 A3010 RMK AO2 T02610061
KCWC 181815Z AUTO 20007G15KT 10SM CLR 26/06 A3011 RMK AO2 T02590063
KCWC 181755Z AUTO 18011G15KT 10SM CLR 26/07 A3011 RMK AO2 T02550073 10255 20090
KCWC 181735Z AUTO 18009KT 10SM CLR 25/08 A3012 RMK AO2 T02480078
KCWC 181715Z AUTO 19010G15KT 10SM CLR 24/08 A3012 RMK AO2 T02410080
KCWC 181655Z AUTO 18008KT 10SM CLR 23/08 A3013 RMK AO2 T02340076
KCWC 181635Z AUTO 18009KT 10SM CLR 22/08 A3013 RMK AO2 T02230082
KCWC 181615Z AUTO 18012G19KT 10SM CLR 21/08 A3013 RMK AO2 T02120082
KCWC 181555Z AUTO 18015G20KT 10SM CLR 20/08 A3014 RMK AO2 T01960076
KCWC 181535Z AUTO 17011G17KT 10SM CLR 19/09 A3014 RMK AO2 T01860086
KCWC 181515Z AUTO 18012KT 10SM CLR 17/08 A3014 RMK AO2 T01720081
KCWC 181455Z AUTO 18013KT 10SM CLR 16/09 A3013 RMK AO2 T01620085
KCWC 181435Z AUTO 17011KT 10SM CLR 15/08 A3013 RMK AO2 T01480081
KCWC 181415Z AUTO 17010KT 10SM CLR 14/08 A3013 RMK AO2 T01380080
KCWC 181355Z AUTO 15007KT 10SM CLR 12/08 A3012 RMK AO2 T01240081
KCWC 181335Z AUTO 14008KT 10SM CLR 11/08 A3012 RMK AO2 T01120081
KCWC 181315Z AUTO 13008KT 10SM CLR 09/07 A3012 RMK AO2 T00930072
KCWC 181255Z AUTO 15005KT 10SM CLR 09/07 A3011 RMK AO2 T00920066
KCWC 181235Z AUTO 14004KT 10SM CLR 09/07 A3011 RMK AO2 T00920065
KCWC 181215Z AUTO 15003KT 10SM CLR 10/07 A3011 RMK AO2 T00960068
KCWC 181155Z AUTO 14003KT 10SM CLR 10/07 A3011 RMK AO2 T00950066 10135 20092
KCWC 181135Z AUTO 13004KT 10SM CLR 09/07 A3010 RMK AO2 T00920065